Flight Track Log - Related Links

Times and Time Zones

All times are in EDT time to prevent confusion due to time zone crossing. See the KAP927 flight status page for this flight to view local times or setup timezone preferences in your user account.


Time Position Orientation Groundspeed Altitude Reporting Facility
EDT Latitude Longitude Course Direction KTS MPH feet Rate Location/Type
Wed 05:48:51 PM 44.4692 -75.3172 154° Southeast 156 180 4,200  Level Boston Center
Wed 05:49:51 PM 44.4389 -75.2808 139° Southeast 156 180 4,600 400 Climbing Boston Center
Wed 05:50:51 PM 44.4083 -75.2503 144° Southeast 142 163 5,000 450 Climbing Boston Center
Wed 05:51:51 PM 44.3756 -75.2225 149° Southeast 137 158 5,500 500 Climbing Boston Center
Wed 05:53:00 PM 44.4902 -75.2947 149° Southeast  Level Estimated
Wed 05:53:03 PM 44.3347 -75.1858 147° Southeast 137 158 6,100  Level Boston Center
Wed 05:54:03 PM 44.3022 -75.1583 149° Southeast 137 158 6,500 400 Climbing Boston Center
Wed 05:55:03 PM 44.2675 -75.1219 143° Southeast 142 163 6,900 250 Climbing Boston Center
Wed 05:56:03 PM 44.2308 -75.0914 149° Southeast 142 163 7,000 50 Climbing Boston Center
Wed 05:57:03 PM 44.1981 -75.0636 149° Southeast 153 176 7,000  Level Boston Center
Wed 05:58:03 PM 44.1508 -75.0269 151° Southeast 160 184 7,000  Level Boston Center
Wed 05:59:15 PM 44.1122 -74.9933 148° Southeast 160 184 7,000  Level Boston Center
Wed 06:00:15 PM 44.0653 -74.9481 145° Southeast 160 184 7,000  Level Boston Center
Wed 06:01:15 PM 44.0283 -74.9147 147° Southeast 165 190 7,000  Level Boston Center
Wed 06:02:15 PM 43.9897 -74.8756 144° Southeast 165 190 7,000  Level Boston Center
Wed 06:03:15 PM 43.9508 -74.8422 148° Southeast 165 190 7,000  Level Boston Center
Wed 06:04:15 PM 43.9119 -74.8061 146° Southeast 165 190 7,000  Level Boston Center
Wed 06:05:15 PM 43.8731 -74.7731 148° Southeast 165 190 7,000  Level Boston Center
Wed 06:06:15 PM 43.8342 -74.7369 146° Southeast 165 190 7,000  Level Boston Center
Wed 06:07:15 PM 43.7953 -74.7039 148° Southeast 165 190 7,000  Level Boston Center
Wed 06:08:15 PM 43.7561 -74.6706 148° Southeast 165 190 7,000  Level Boston Center
Wed 06:09:15 PM 43.7172 -74.6406 151° Southeast 165 190 7,000  Level Boston Center
Wed 06:10:15 PM 43.6739 -74.6103 153° Southeast 165 190 7,000  Level Boston Center
Wed 06:11:15 PM 43.6350 -74.5744 146° Southeast 165 190 7,000  Level Boston Center
Wed 06:12:15 PM 43.5961 -74.5386 146° Southeast 165 190 7,000  Level Boston Center
Wed 06:13:15 PM 43.5572 -74.5000 144° Southeast 165 190 7,000 74 Level Boston Center
Wed 06:13:36 PM 43.5489 -74.4942 153° Southeast 172 198 7,100 115 Climbing Boston Center
Wed 06:14:07 PM 43.5244 -74.4703 145° Southeast 175 201 7,100  Level Boston Center
Wed 06:15:07 PM 43.4792 -74.4344 150° Southeast 175 201 7,100 -50 Level Boston Center
Wed 06:16:08 PM 43.4403 -74.3989 146° Southeast 179 206 7,000 -49 Descending Boston Center
Wed 06:17:09 PM 43.3992 -74.3603 146° Southeast 176 203 7,000  Level Boston Center
Wed 06:18:09 PM 43.3581 -74.3247 148° Southeast 171 197 7,000  Level Boston Center
Wed 06:19:15 PM 43.3169 -74.2864 146° Southeast 172 198 7,000 -49 Level Boston Center
Wed 06:20:11 PM 43.2781 -74.2539 149° Southeast 166 191 6,900 -362 Descending Boston Center
Wed 06:21:11 PM 43.2392 -74.2072 139° Southeast 199 229 6,300 -595 Descending Boston Center
Wed 06:22:12 PM 43.1919 -74.1517 139° Southeast 203 234 5,700 -590 Descending Boston Center
Wed 06:23:13 PM 43.1553 -74.0964 132° Southeast 199 229 5,100 -488 Descending Boston Center
Wed 06:24:15 PM 43.1164 -74.0472 137° Southeast 195 224 4,700 -446 Descending Boston Center
Wed 06:25:14 PM 43.0775 -74.0006 139° Southeast 192 221 4,200 -500 Descending Boston Center
Wed 06:26:15 PM 43.0364 -73.9483 137° Southeast 185 213 3,700 -496 Descending Boston Center
Wed 06:27:15 PM 43.0036 -73.9108 140° Southeast 185 213 3,200 -550 Descending Boston Center
Wed 06:28:15 PM 42.9647 -73.8586 135° Southeast 179 206 2,600 -517 Descending Boston Center
Wed 06:29:11 PM 42.9319 -73.8211 140° Southeast 160 184 2,200 -359 Descending Boston Center
Wed 06:30:12 PM 42.8944 -73.8117 170° South 141 162 1,900 -198 Descending Boston Center
Wed 06:31:12 PM 42.8589 -73.8139 183° South 120 138 1,800 -149 Descending Boston Center
Wed 06:32:13 PM 42.8194 -73.8100 176° South 132 152 1,600 -492 Descending Boston Center
Wed 06:33:14 PM 42.7839 -73.8064 176° South 127 146 800 -787 Descending Boston Center
Wed 06:35:00 PM 42.7491 -73.8020 160° South  Level Estimated

Login

Don't have an account? Register now (free) for customized features, flight alerts, and more!